createdAt,value
2022-12-18T00:01:27.900Z,101902.94
2022-12-18T00:03:56.521Z,101908.22
2022-12-18T00:06:24.617Z,101910.03
2022-12-18T00:08:52.058Z,101905.38
2022-12-18T00:11:26.919Z,101917.56
2022-12-18T00:13:56.552Z,101926.00
2022-12-18T00:16:25.407Z,101931.84
2022-12-18T00:18:55.255Z,101936.03
2022-12-18T00:21:22.580Z,101944.47
2022-12-18T00:23:50.633Z,101948.69
2022-12-18T00:26:39.663Z,101956.91
2022-12-18T00:29:12.444Z,101954.06
2022-12-18T00:31:39.597Z,101969.13
2022-12-18T00:34:07.048Z,101966.16
2022-12-18T00:36:35.421Z,101964.91
2022-12-18T00:39:05.123Z,101959.50
2022-12-18T00:41:52.459Z,101970.81
2022-12-18T00:44:19.795Z,101977.34
2022-12-18T00:46:48.288Z,101969.00
2022-12-18T00:49:17.726Z,101987.09
2022-12-18T00:51:44.739Z,101973.38
2022-12-18T00:54:12.330Z,101976.59
2022-12-18T00:56:48.255Z,101987.94
2022-12-18T00:59:16.991Z,102000.84
2022-12-18T01:01:43.997Z,101992.28
2022-12-18T01:04:11.116Z,102004.84
2022-12-18T01:06:37.920Z,102005.03
2022-12-18T01:09:04.863Z,101992.28
2022-12-18T01:11:32.456Z,102011.12
2022-12-18T01:14:00.634Z,102015.22
2022-12-18T01:16:27.924Z,102015.34
2022-12-18T01:18:55.637Z,102017.81
2022-12-18T01:21:24.147Z,102019.91
2022-12-18T01:23:56.133Z,102022.78
2022-12-18T01:26:23.575Z,102022.78
2022-12-18T01:28:50.622Z,102026.56
2022-12-18T01:31:20.991Z,102028.38
2022-12-18T01:33:48.179Z,102026.66
2022-12-18T01:36:29.912Z,102033.66
2022-12-18T01:38:57.531Z,102027.38
2022-12-18T01:41:27.418Z,102028.88
2022-12-18T01:43:58.332Z,102027.59
2022-12-18T01:46:26.406Z,102031.13
2022-12-18T01:49:02.121Z,102030.31
2022-12-18T01:51:31.538Z,102033.87
2022-12-18T01:54:00.334Z,102036.31
2022-12-18T01:56:27.382Z,102046.06
2022-12-18T01:58:54.394Z,102046.84
2022-12-18T02:01:24.205Z,102048.56
2022-12-18T02:03:51.188Z,102054.16
2022-12-18T02:06:30.657Z,102054.91
2022-12-18T02:09:19.802Z,102050.81
2022-12-18T02:11:55.501Z,102067.59
2022-12-18T02:14:34.925Z,102072.59
2022-12-18T02:17:13.888Z,102072.59
2022-12-18T02:19:43.554Z,102076.91
2022-12-18T02:22:38.099Z,102086.06
2022-12-18T02:25:44.064Z,102079.69
2022-12-18T02:28:16.596Z,102087.59
2022-12-18T02:30:47.256Z,102086.59
2022-12-18T02:33:15.567Z,102090.97
2022-12-18T02:35:45.163Z,102100.66
2022-12-18T02:38:13.862Z,102106.25
2022-12-18T02:40:43.323Z,102099.75
2022-12-18T02:43:12.888Z,102115.41
2022-12-18T02:45:56.742Z,102123.97
2022-12-18T02:48:34.234Z,102126.50
2022-12-18T02:51:13.031Z,102122.66
2022-12-18T02:53:49.166Z,102138.06
2022-12-18T02:56:18.227Z,102127.78
2022-12-18T02:58:59.727Z,102127.47
2022-12-18T03:02:02.328Z,102127.47
2022-12-18T03:04:35.931Z,102126.47
2022-12-18T03:07:10.509Z,102128.84
2022-12-18T03:09:43.121Z,102137.91
2022-12-18T03:12:26.024Z,102139.41
2022-12-18T03:15:18.486Z,102147.06
2022-12-18T03:17:56.182Z,102144.16
2022-12-18T03:20:25.321Z,102157.94
2022-12-18T03:23:01.870Z,102158.81
2022-12-18T03:25:30.107Z,102161.28
2022-12-18T03:28:00.129Z,102163.69
2022-12-18T03:30:29.694Z,102160.00
2022-12-18T03:33:13.147Z,102169.44
2022-12-18T03:35:42.807Z,102161.72
2022-12-18T03:38:11.342Z,102169.84
2022-12-18T03:40:51.828Z,102171.19
2022-12-18T03:44:11.285Z,102171.19
2022-12-18T03:46:53.199Z,102171.41
2022-12-18T03:49:39.777Z,102176.37
2022-12-18T03:52:21.328Z,102184.03
2022-12-18T03:54:48.710Z,102181.12
2022-12-18T03:57:21.634Z,102180.78
2022-12-18T03:59:53.354Z,102190.25
2022-12-18T04:02:23.596Z,102189.47
2022-12-18T04:04:54.687Z,102183.53
2022-12-18T04:07:23.474Z,102196.91
2022-12-18T04:09:53.786Z,102195.72
2022-12-18T04:12:20.722Z,102198.06
2022-12-18T04:14:47.625Z,102191.78
2022-12-18T04:17:14.475Z,102201.25
2022-12-18T04:19:41.423Z,102204.72
2022-12-18T04:22:11.286Z,102205.75
2022-12-18T04:24:38.351Z,102205.41
2022-12-18T04:27:05.543Z,102201.38
2022-12-18T04:29:33.220Z,102213.44
2022-12-18T04:32:00.102Z,102215.44
2022-12-18T04:34:27.118Z,102216.69
2022-12-18T04:36:53.880Z,102217.47
2022-12-18T04:39:21.365Z,102208.28
2022-12-18T04:41:48.095Z,102235.28
2022-12-18T04:44:15.036Z,102237.88
2022-12-18T04:46:42.013Z,102240.81
2022-12-18T04:49:08.934Z,102242.25
2022-12-18T04:51:35.742Z,102249.00
2022-12-18T04:54:03.098Z,102249.56
2022-12-18T04:56:32.670Z,102258.13
2022-12-18T04:58:59.594Z,102252.72
2022-12-18T05:01:32.508Z,102253.53
2022-12-18T05:04:01.901Z,102254.19
2022-12-18T05:06:28.799Z,102266.00
2022-12-18T05:08:55.772Z,102266.00
2022-12-18T05:11:22.646Z,102267.81
2022-12-18T05:13:49.637Z,102273.66
2022-12-18T05:16:16.739Z,102277.72
2022-12-18T05:18:44.025Z,102273.34
2022-12-18T05:21:10.910Z,102256.13
2022-12-18T05:23:38.270Z,102271.66
2022-12-18T05:26:07.359Z,102277.25
2022-12-18T05:28:36.410Z,102274.56
2022-12-18T05:31:05.019Z,102282.91
2022-12-18T05:33:34.027Z,102280.16
2022-12-18T05:36:02.580Z,102292.34
2022-12-18T05:38:30.993Z,102286.81
2022-12-18T05:40:58.219Z,102293.66
2022-12-18T05:43:26.823Z,102297.16
2022-12-18T05:45:54.552Z,102299.31
2022-12-18T05:48:22.222Z,102302.78
2022-12-18T05:50:51.280Z,102297.59
2022-12-18T05:53:20.799Z,102315.50
2022-12-18T05:55:48.084Z,102310.63
2022-12-18T05:58:15.794Z,102330.12
2022-12-18T06:00:45.833Z,102321.47
2022-12-18T06:03:13.625Z,102323.47
2022-12-18T06:05:42.789Z,102333.03
2022-12-18T06:08:10.072Z,102334.72
2022-12-18T06:10:37.707Z,102333.91
2022-12-18T06:13:05.104Z,102333.03
2022-12-18T06:15:31.938Z,102331.53
2022-12-18T06:17:59.327Z,102343.78
2022-12-18T06:20:31.821Z,102333.88
2022-12-18T06:23:00.400Z,102341.75
2022-12-18T06:25:27.237Z,102343.34
2022-12-18T06:27:54.146Z,102347.06
2022-12-18T06:30:21.412Z,102353.03
2022-12-18T06:32:54.661Z,102361.44
2022-12-18T06:35:23.797Z,102356.47
2022-12-18T06:37:50.693Z,102363.00
2022-12-18T06:40:17.898Z,102346.66
2022-12-18T06:42:44.772Z,102369.75
2022-12-18T06:45:12.573Z,102373.88
2022-12-18T06:47:39.479Z,102376.81
2022-12-18T06:50:06.868Z,102370.41
2022-12-18T06:52:34.597Z,102380.78
2022-12-18T06:55:01.960Z,102385.84
2022-12-18T06:57:29.011Z,102383.94
2022-12-18T06:59:55.953Z,102393.41
2022-12-18T07:02:23.014Z,102400.50
2022-12-18T07:04:50.032Z,102401.66
2022-12-18T07:07:16.924Z,102402.00
2022-12-18T07:09:43.952Z,102403.94
2022-12-18T07:12:10.944Z,102401.69
2022-12-18T07:14:37.731Z,102409.25
2022-12-18T07:17:04.612Z,102380.50
2022-12-18T07:19:32.790Z,102414.00
2022-12-18T07:21:59.898Z,102418.06
2022-12-18T07:24:26.725Z,102420.81
2022-12-18T07:26:53.763Z,102433.09
2022-12-18T07:29:20.657Z,102436.03
2022-12-18T07:31:47.704Z,102440.19
2022-12-18T07:34:16.317Z,102439.59
2022-12-18T07:36:43.845Z,102445.44
2022-12-18T07:39:12.546Z,102451.25
2022-12-18T07:41:45.213Z,102454.06
2022-12-18T07:44:13.863Z,102459.22
2022-12-18T07:46:40.744Z,102449.81
2022-12-18T07:49:07.814Z,102468.69
2022-12-18T07:51:34.631Z,102456.59
2022-12-18T07:54:03.984Z,102465.28
2022-12-18T07:56:31.583Z,102476.50
2022-12-18T07:58:59.938Z,102485.38
2022-12-18T08:01:28.754Z,102486.09
2022-12-18T08:03:56.015Z,102483.94
2022-12-18T08:06:24.455Z,102485.53
2022-12-18T08:08:53.770Z,102487.72
2022-12-18T08:11:20.702Z,102492.38
2022-12-18T08:13:48.588Z,102497.56
2022-12-18T08:16:16.942Z,102500.66
2022-12-18T08:18:43.961Z,102495.47
2022-12-18T08:21:20.610Z,102495.47
2022-12-18T08:23:49.381Z,102494.41
2022-12-18T08:26:18.677Z,102496.81
2022-12-18T08:28:46.164Z,102499.16
2022-12-18T08:31:17.974Z,102498.38
2022-12-18T08:33:44.872Z,102499.53
2022-12-18T08:36:12.043Z,102502.78
2022-12-18T08:38:39.152Z,102507.97
2022-12-18T08:41:08.633Z,102507.06
2022-12-18T08:43:54.413Z,102498.44
2022-12-18T08:46:23.557Z,102501.06
2022-12-18T08:48:52.816Z,102509.53
2022-12-18T08:51:20.606Z,102505.69
2022-12-18T08:53:47.940Z,102512.09
2022-12-18T08:56:15.703Z,102511.06
2022-12-18T08:58:43.858Z,102499.84
2022-12-18T09:01:12.919Z,102505.81
2022-12-18T09:03:40.556Z,102517.75
2022-12-18T09:06:08.516Z,102523.56
2022-12-18T09:08:35.818Z,102526.13
2022-12-18T09:11:02.765Z,102527.47
2022-12-18T09:13:29.842Z,102536.06
2022-12-18T09:15:56.862Z,102536.44
2022-12-18T09:18:25.329Z,102539.00
2022-12-18T09:20:53.906Z,102542.78
2022-12-18T09:23:21.994Z,102528.88
2022-12-18T09:25:49.533Z,102535.28
2022-12-18T09:28:19.183Z,102543.34
2022-12-18T09:30:50.460Z,102538.84
2022-12-18T09:33:17.800Z,102547.44
2022-12-18T09:35:46.279Z,102548.28
2022-12-18T09:38:16.102Z,102539.34
2022-12-18T09:40:45.150Z,102546.75
2022-12-18T09:43:18.894Z,102541.47
2022-12-18T09:45:50.407Z,102543.00
2022-12-18T09:48:24.698Z,102544.44
2022-12-18T09:50:53.384Z,102531.59
2022-12-18T09:53:27.862Z,102530.31
2022-12-18T09:55:57.432Z,102532.34
2022-12-18T09:58:46.370Z,102531.37
2022-12-18T10:01:17.518Z,102532.44
2022-12-18T10:03:44.639Z,102531.59
2022-12-18T10:06:32.894Z,102529.16
2022-12-18T10:09:38.213Z,102522.03
2022-12-18T10:12:17.293Z,102521.97
2022-12-18T10:15:12.965Z,102526.50
2022-12-18T10:17:53.185Z,102521.56
2022-12-18T10:20:42.535Z,102528.66
2022-12-18T10:23:29.407Z,102520.66
2022-12-18T10:26:06.114Z,102510.56
2022-12-18T10:28:35.992Z,102528.22
2022-12-18T10:31:03.524Z,102518.72
2022-12-18T10:33:33.420Z,102516.38
2022-12-18T10:36:01.207Z,102510.97
2022-12-18T10:38:33.000Z,102512.38
2022-12-18T10:41:02.607Z,102519.34
2022-12-18T10:43:35.174Z,102521.44
2022-12-18T10:46:15.596Z,102511.19
2022-12-18T10:48:51.489Z,102518.31
2022-12-18T10:51:23.291Z,102510.78
2022-12-18T10:54:00.508Z,102513.75
2022-12-18T10:56:29.804Z,102515.53
2022-12-18T10:59:07.860Z,102512.34
2022-12-18T11:01:48.868Z,102505.03
2022-12-18T11:04:24.466Z,102504.66
2022-12-18T11:07:00.251Z,102506.12
2022-12-18T11:09:33.267Z,102507.38
2022-12-18T11:12:07.247Z,102497.81
2022-12-18T11:14:47.155Z,102497.87
2022-12-18T11:17:25.842Z,102485.66
2022-12-18T11:19:55.553Z,102495.22
2022-12-18T11:22:27.610Z,102494.66
2022-12-18T11:28:04.751Z,102489.84
2022-12-18T11:30:36.622Z,102489.88
2022-12-18T11:33:21.934Z,102489.88
2022-12-18T11:36:04.741Z,102484.97
2022-12-18T11:38:41.264Z,102489.00
2022-12-18T11:41:50.030Z,102479.59
2022-12-18T11:44:32.897Z,102479.06
2022-12-18T11:47:13.873Z,102465.72
2022-12-18T11:49:42.394Z,102458.88
2022-12-18T11:52:20.017Z,102463.56
2022-12-18T11:54:46.837Z,102463.00
2022-12-18T11:57:28.573Z,102472.03
2022-12-18T12:00:13.540Z,102469.28
2022-12-18T12:03:16.020Z,102478.31
2022-12-18T12:06:07.797Z,102472.28
2022-12-18T12:09:05.154Z,102465.03
2022-12-18T12:11:38.064Z,102462.75
2022-12-18T12:14:07.861Z,102457.47
2022-12-18T12:16:50.151Z,102458.78
2022-12-18T12:19:27.048Z,102455.75
2022-12-18T12:22:05.014Z,102458.88
2022-12-18T12:24:34.714Z,102459.69
2022-12-18T12:27:40.807Z,102457.56
2022-12-18T12:30:23.763Z,102463.66
2022-12-18T12:33:02.707Z,102455.03
2022-12-18T12:35:44.517Z,102454.69
2022-12-18T12:38:21.111Z,102451.81
2022-12-18T12:41:04.547Z,102454.44
2022-12-18T12:43:49.591Z,102453.25
2022-12-18T12:46:20.854Z,102472.53
2022-12-18T12:48:53.718Z,102463.34
2022-12-18T12:51:24.917Z,102471.00
2022-12-18T12:53:54.480Z,102480.59
2022-12-18T12:56:28.904Z,102477.81
2022-12-18T12:59:03.254Z,102487.09
2022-12-18T13:01:38.172Z,102487.00
2022-12-18T13:04:22.815Z,102480.97
2022-12-18T13:07:05.892Z,102495.47
2022-12-18T13:09:36.891Z,102499.28
2022-12-18T13:12:41.818Z,102497.56
2022-12-18T13:15:25.200Z,102493.59
2022-12-18T13:18:15.736Z,102500.16
2022-12-18T13:20:52.259Z,102499.28
2022-12-18T13:23:29.379Z,102503.47
2022-12-18T13:26:24.763Z,102506.44
2022-12-18T13:28:56.532Z,102504.37
2022-12-18T13:31:44.780Z,102511.09
2022-12-18T13:34:26.768Z,102504.59
2022-12-18T13:36:56.219Z,102507.41
2022-12-18T13:39:32.686Z,102518.22
2022-12-18T13:42:07.002Z,102520.06
2022-12-18T13:44:40.572Z,102528.00
2022-12-18T13:47:32.407Z,102530.56
2022-12-18T13:50:00.107Z,102526.34
2022-12-18T13:52:34.549Z,102524.19
2022-12-18T13:55:06.288Z,102534.94
2022-12-18T13:57:41.804Z,102529.78
2022-12-18T14:00:17.830Z,102536.03
2022-12-18T14:02:46.599Z,102533.53
2022-12-18T14:05:29.176Z,102535.09
2022-12-18T14:08:02.607Z,102529.97
2022-12-18T14:10:48.931Z,102533.69
2022-12-18T14:13:25.222Z,102530.25
2022-12-18T14:15:52.509Z,102530.84
2022-12-18T14:18:59.826Z,102538.44
2022-12-18T14:21:31.726Z,102530.78
2022-12-18T14:24:20.482Z,102539.84
2022-12-18T14:26:51.822Z,102534.53
2022-12-18T14:29:21.807Z,102536.91
2022-12-18T14:32:18.764Z,102546.34
2022-12-18T14:34:47.999Z,102545.00
2022-12-18T14:37:18.055Z,102552.56
2022-12-18T14:40:10.560Z,102556.47
2022-12-18T14:42:38.494Z,102560.38
2022-12-18T14:45:41.432Z,102561.13
2022-12-18T14:48:22.919Z,102563.56
2022-12-18T14:51:04.655Z,102578.38
2022-12-18T14:53:36.686Z,102571.25
2022-12-18T14:56:13.516Z,102580.69
2022-12-18T14:58:40.580Z,102582.53
2022-12-18T15:01:10.625Z,102587.91
2022-12-18T15:03:45.184Z,102592.44
2022-12-18T15:06:26.703Z,102599.56
2022-12-18T15:08:56.382Z,102598.00
2022-12-18T15:11:36.270Z,102598.09
2022-12-18T15:14:25.654Z,102591.34
2022-12-18T15:16:56.887Z,102603.66
2022-12-18T15:19:40.299Z,102607.62
2022-12-18T15:22:22.157Z,102607.28
2022-12-18T15:24:50.458Z,102611.28
2022-12-18T15:27:27.496Z,102619.66
2022-12-18T15:30:22.979Z,102612.94
2022-12-18T15:32:51.539Z,102616.81
2022-12-18T15:35:27.472Z,102618.25
2022-12-18T15:37:55.144Z,102628.38
2022-12-18T15:40:27.115Z,102623.53
2022-12-18T15:43:15.196Z,102624.31
2022-12-18T15:45:42.786Z,102625.12
2022-12-18T15:48:30.777Z,102636.75
2022-12-18T15:51:00.037Z,102638.19
2022-12-18T15:53:35.274Z,102640.22
2022-12-18T15:56:21.270Z,102644.63
2022-12-18T15:58:50.773Z,102662.62
2022-12-18T16:01:18.963Z,102663.75
2022-12-18T16:03:46.809Z,102671.19
2022-12-18T16:06:14.351Z,102670.09
2022-12-18T16:08:41.877Z,102668.22
2022-12-18T16:11:39.867Z,102672.25
2022-12-18T16:14:20.490Z,102674.78
2022-12-18T16:16:50.849Z,102674.28
2022-12-18T16:19:21.077Z,102676.41
2022-12-18T16:21:50.814Z,102676.22
2022-12-18T16:24:23.738Z,102683.28
2022-12-18T16:26:52.824Z,102693.28
2022-12-18T16:29:28.616Z,102698.72
2022-12-18T16:32:00.442Z,102696.62
2022-12-18T16:34:35.637Z,102689.00
2022-12-18T16:37:06.496Z,102701.25
2022-12-18T16:39:35.933Z,102705.44
2022-12-18T16:42:16.068Z,102709.41
2022-12-18T16:44:45.636Z,102703.09
2022-12-18T16:47:15.374Z,102708.78
2022-12-18T16:49:46.047Z,102715.47
2022-12-18T16:52:14.613Z,102712.50
2022-12-18T16:54:42.577Z,102714.06
2022-12-18T16:57:18.609Z,102702.16
2022-12-18T16:59:47.147Z,102720.59
2022-12-18T17:02:19.203Z,102723.66
2022-12-18T17:04:56.008Z,102728.19
2022-12-18T17:07:24.060Z,102717.47
2022-12-18T17:09:52.127Z,102705.81
2022-12-18T17:12:20.116Z,102700.75
2022-12-18T17:14:49.453Z,102700.31
2022-12-18T17:17:22.338Z,102701.44
2022-12-18T17:19:52.616Z,102708.44
2022-12-18T17:22:21.754Z,102703.06
2022-12-18T17:24:49.455Z,102705.69
2022-12-18T17:27:17.329Z,102713.25
2022-12-18T17:29:47.677Z,102716.12
2022-12-18T17:32:17.768Z,102708.37
2022-12-18T17:34:47.121Z,102708.19
2022-12-18T17:37:16.176Z,102696.56
2022-12-18T17:39:46.245Z,102716.12
2022-12-18T17:42:15.863Z,102711.94
2022-12-18T17:44:45.457Z,102708.81
2022-12-18T17:47:14.786Z,102717.63
2022-12-18T17:49:42.634Z,102719.00
2022-12-18T17:52:11.090Z,102720.59
2022-12-18T17:54:41.918Z,102715.97
2022-12-18T17:57:09.381Z,102721.06
2022-12-18T17:59:36.965Z,102724.38
2022-12-18T18:02:04.760Z,102717.38
2022-12-18T18:04:32.761Z,102720.63
2022-12-18T18:07:00.377Z,102716.34
2022-12-18T18:09:28.748Z,102715.66
2022-12-18T18:12:16.033Z,102715.44
2022-12-18T18:14:44.639Z,102720.06
2022-12-18T18:17:12.026Z,102729.09
2022-12-18T18:19:39.668Z,102720.28
2022-12-18T18:22:08.554Z,102726.75
2022-12-18T18:24:36.342Z,102734.56
2022-12-18T18:27:08.320Z,102729.13
2022-12-18T18:29:37.019Z,102728.47
2022-12-18T18:32:05.341Z,102733.28
2022-12-18T18:34:34.121Z,102727.44
2022-12-18T18:37:02.722Z,102728.34
2022-12-18T18:39:31.091Z,102731.81
2022-12-18T18:41:58.662Z,102739.94
2022-12-18T18:44:26.599Z,102743.91
2022-12-18T18:46:55.607Z,102742.22
2022-12-18T18:49:24.464Z,102743.91
2022-12-18T18:51:54.200Z,102742.22
2022-12-18T18:54:22.426Z,102747.72
2022-12-18T18:59:38.537Z,102756.88
2022-12-18T19:02:06.177Z,102766.47
2022-12-18T19:04:35.229Z,102775.94
2022-12-18T19:07:04.927Z,102777.25
2022-12-18T19:09:32.616Z,102779.50
2022-12-18T19:12:19.378Z,102771.28
2022-12-18T19:14:47.433Z,102776.25
2022-12-18T19:17:15.097Z,102778.09
2022-12-18T19:19:43.035Z,102776.09
2022-12-18T19:22:13.005Z,102783.53
2022-12-18T19:24:40.649Z,102783.28
2022-12-18T19:27:07.778Z,102789.94
2022-12-18T19:29:35.429Z,102796.03
2022-12-18T19:32:05.854Z,102801.09
2022-12-18T19:34:35.111Z,102803.34
2022-12-18T19:37:02.286Z,102796.13
2022-12-18T19:39:35.550Z,102808.72
2022-12-18T19:42:03.417Z,102825.84
2022-12-18T19:44:32.877Z,102821.31
2022-12-18T19:47:00.433Z,102830.59
2022-12-18T19:49:30.112Z,102817.19
2022-12-18T19:51:57.863Z,102828.75
2022-12-18T19:54:26.324Z,102831.53
2022-12-18T19:56:54.152Z,102831.53
2022-12-18T19:59:22.721Z,102838.53
2022-12-18T20:01:51.227Z,102827.84
2022-12-18T20:04:21.705Z,102821.75
2022-12-18T20:06:52.104Z,102825.56
2022-12-18T20:09:20.691Z,102824.22
2022-12-18T20:11:50.470Z,102827.84
2022-12-18T20:14:22.821Z,102834.88
2022-12-18T20:16:51.684Z,102842.19
2022-12-18T20:19:19.769Z,102833.56
2022-12-18T20:21:48.221Z,102847.28
2022-12-18T20:24:16.780Z,102850.13
2022-12-18T20:26:44.554Z,102850.00
2022-12-18T20:29:12.108Z,102847.41
2022-12-18T20:31:39.733Z,102841.09
2022-12-18T20:34:07.240Z,102861.63
2022-12-18T20:36:44.173Z,102858.28
2022-12-18T20:39:12.269Z,102856.72
2022-12-18T20:41:40.871Z,102854.66
2022-12-18T20:44:21.835Z,102853.47
2022-12-18T20:46:54.037Z,102865.44
2022-12-18T20:49:25.649Z,102844.59
2022-12-18T20:51:54.729Z,102873.44
2022-12-18T20:54:24.440Z,102870.00
2022-12-18T20:56:52.111Z,102871.13
2022-12-18T20:59:19.989Z,102873.44
2022-12-18T21:01:48.863Z,102879.53
2022-12-18T21:04:18.328Z,102886.66
2022-12-18T21:06:51.425Z,102889.34
2022-12-18T21:09:20.789Z,102885.38
2022-12-18T21:12:06.917Z,102891.75
2022-12-18T21:14:33.925Z,102889.59
2022-12-18T21:17:02.149Z,102886.94
2022-12-18T21:19:29.970Z,102883.13
2022-12-18T21:21:58.246Z,102883.00
2022-12-18T21:24:25.817Z,102887.22
2022-12-18T21:26:56.981Z,102896.16
2022-12-18T21:29:26.051Z,102882.97
2022-12-18T21:31:54.601Z,102882.75
2022-12-18T21:34:27.438Z,102879.59
2022-12-18T21:36:55.881Z,102874.31
2022-12-18T21:39:23.555Z,102863.50
2022-12-18T21:42:09.558Z,102869.34
2022-12-18T21:44:42.381Z,102863.13
2022-12-18T21:47:21.471Z,102863.94
2022-12-18T21:49:51.680Z,102851.09
2022-12-18T21:52:19.121Z,102855.25
2022-12-18T21:54:45.918Z,102849.38
2022-12-18T21:57:15.521Z,102856.63
2022-12-18T21:59:45.860Z,102854.50
2022-12-18T22:02:16.213Z,102842.81
2022-12-18T22:04:43.969Z,102854.34
2022-12-18T22:07:11.693Z,102857.66
2022-12-18T22:09:39.070Z,102846.13
2022-12-18T22:12:06.295Z,102858.31
2022-12-18T22:14:33.115Z,102862.50
2022-12-18T22:17:00.020Z,102873.00
2022-12-18T22:19:28.161Z,102866.81
2022-12-18T22:21:55.058Z,102859.78
2022-12-18T22:24:24.509Z,102855.84
2022-12-18T22:26:56.201Z,102859.44
2022-12-18T22:29:47.460Z,102852.78
2022-12-18T22:32:30.807Z,102853.59
2022-12-18T22:35:07.921Z,102869.16
2022-12-18T22:37:35.134Z,102866.91
2022-12-18T22:40:03.709Z,102877.09
2022-12-18T22:42:31.358Z,102881.00
2022-12-18T22:44:58.337Z,102858.97
2022-12-18T22:47:29.430Z,102868.22
2022-12-18T22:49:57.228Z,102868.69
2022-12-18T22:52:25.038Z,102866.09
2022-12-18T22:54:53.386Z,102876.72
2022-12-18T22:57:22.041Z,102876.94
2022-12-18T22:59:50.325Z,102879.31
2022-12-18T23:02:18.153Z,102881.13
2022-12-18T23:04:45.442Z,102880.44
2022-12-18T23:07:12.587Z,102876.00
2022-12-18T23:09:40.097Z,102859.41
2022-12-18T23:12:08.302Z,102881.88
2022-12-18T23:14:35.432Z,102878.59
2022-12-18T23:17:02.378Z,102871.72
2022-12-18T23:19:29.298Z,102878.75
2022-12-18T23:21:58.730Z,102876.56
2022-12-18T23:24:26.307Z,102865.81
2022-12-18T23:26:53.210Z,102875.88
2022-12-18T23:29:20.586Z,102871.56
2022-12-18T23:31:49.979Z,102872.59
2022-12-18T23:34:18.029Z,102869.88
2022-12-18T23:36:46.696Z,102860.41
2022-12-18T23:39:28.378Z,102861.28
2022-12-18T23:41:59.873Z,102868.19
2022-12-18T23:44:26.732Z,102867.41
2022-12-18T23:46:53.655Z,102875.19
2022-12-18T23:49:23.751Z,102867.41
2022-12-18T23:51:50.545Z,102869.31
2022-12-18T23:54:17.468Z,102879.91
2022-12-18T23:56:59.617Z,102879.91
2022-12-18T23:59:26.758Z,102874.63
